sensor_id;sensor_type;location;lat;lon;timestamp;P1;durP1;ratioP1;P2;durP2;ratioP2
55417;SDS011;41287;47.554;7.844;2023-04-06T00:00:56;2.53;;;1.33;;
55417;SDS011;41287;47.554;7.844;2023-04-06T00:03:21;2.38;;;1.23;;
55417;SDS011;41287;47.554;7.844;2023-04-06T00:05:47;1.77;;;1.08;;
55417;SDS011;41287;47.554;7.844;2023-04-06T00:08:12;1.20;;;0.90;;
55417;SDS011;41287;47.554;7.844;2023-04-06T00:10:38;2.42;;;1.10;;
55417;SDS011;41287;47.554;7.844;2023-04-06T00:13:05;1.65;;;1.20;;
55417;SDS011;41287;47.554;7.844;2023-04-06T00:15:30;2.80;;;1.17;;
55417;SDS011;41287;47.554;7.844;2023-04-06T00:17:56;2.83;;;1.20;;
55417;SDS011;41287;47.554;7.844;2023-04-06T00:20:21;2.60;;;1.30;;
55417;SDS011;41287;47.554;7.844;2023-04-06T00:22:48;2.60;;;1.10;;
55417;SDS011;41287;47.554;7.844;2023-04-06T00:25:13;3.10;;;1.05;;
55417;SDS011;41287;47.554;7.844;2023-04-06T00:27:40;1.60;;;1.02;;
55417;SDS011;41287;47.554;7.844;2023-04-06T00:30:06;2.47;;;1.20;;
55417;SDS011;41287;47.554;7.844;2023-04-06T00:32:33;1.52;;;1.02;;
55417;SDS011;41287;47.554;7.844;2023-04-06T00:35:01;3.90;;;1.30;;
55417;SDS011;41287;47.554;7.844;2023-04-06T00:37:28;1.52;;;0.85;;
55417;SDS011;41287;47.554;7.844;2023-04-06T00:39:53;1.60;;;1.05;;
55417;SDS011;41287;47.554;7.844;2023-04-06T00:42:19;2.90;;;1.35;;
55417;SDS011;41287;47.554;7.844;2023-04-06T00:44:53;2.70;;;1.10;;
55417;SDS011;41287;47.554;7.844;2023-04-06T00:47:20;2.58;;;1.52;;
55417;SDS011;41287;47.554;7.844;2023-04-06T00:49:47;1.30;;;1.10;;
55417;SDS011;41287;47.554;7.844;2023-04-06T00:52:12;2.03;;;1.13;;
55417;SDS011;41287;47.554;7.844;2023-04-06T00:54:38;2.35;;;1.10;;
55417;SDS011;41287;47.554;7.844;2023-04-06T00:57:03;2.92;;;1.00;;
55417;SDS011;41287;47.554;7.844;2023-04-06T00:59:29;2.25;;;1.05;;
55417;SDS011;41287;47.554;7.844;2023-04-06T01:01:57;2.85;;;1.40;;
55417;SDS011;41287;47.554;7.844;2023-04-06T01:04:22;1.70;;;1.17;;
55417;SDS011;41287;47.554;7.844;2023-04-06T01:06:48;1.50;;;1.08;;
55417;SDS011;41287;47.554;7.844;2023-04-06T01:09:14;1.55;;;1.00;;
55417;SDS011;41287;47.554;7.844;2023-04-06T01:11:40;2.28;;;1.35;;
55417;SDS011;41287;47.554;7.844;2023-04-06T01:14:10;1.95;;;1.15;;
55417;SDS011;41287;47.554;7.844;2023-04-06T01:16:35;1.67;;;1.10;;
55417;SDS011;41287;47.554;7.844;2023-04-06T01:19:06;4.03;;;1.65;;
55417;SDS011;41287;47.554;7.844;2023-04-06T01:21:33;1.73;;;1.20;;
55417;SDS011;41287;47.554;7.844;2023-04-06T01:23:58;1.98;;;1.20;;
55417;SDS011;41287;47.554;7.844;2023-04-06T01:26:24;1.80;;;1.10;;
55417;SDS011;41287;47.554;7.844;2023-04-06T01:28:50;2.35;;;1.27;;
55417;SDS011;41287;47.554;7.844;2023-04-06T01:31:15;1.40;;;1.08;;
55417;SDS011;41287;47.554;7.844;2023-04-06T01:33:42;2.45;;;1.20;;
55417;SDS011;41287;47.554;7.844;2023-04-06T01:36:08;2.60;;;0.90;;
55417;SDS011;41287;47.554;7.844;2023-04-06T01:38:33;1.70;;;1.00;;
55417;SDS011;41287;47.554;7.844;2023-04-06T01:40:59;1.48;;;1.13;;
55417;SDS011;41287;47.554;7.844;2023-04-06T01:43:25;1.33;;;1.00;;
55417;SDS011;41287;47.554;7.844;2023-04-06T01:45:52;2.10;;;1.00;;
55417;SDS011;41287;47.554;7.844;2023-04-06T01:48:18;1.50;;;0.95;;
55417;SDS011;41287;47.554;7.844;2023-04-06T01:50:43;2.75;;;1.20;;
55417;SDS011;41287;47.554;7.844;2023-04-06T01:53:09;1.33;;;1.00;;
55417;SDS011;41287;47.554;7.844;2023-04-06T01:55:34;2.08;;;0.90;;
55417;SDS011;41287;47.554;7.844;2023-04-06T01:58:02;1.67;;;1.10;;
55417;SDS011;41287;47.554;7.844;2023-04-06T02:00:27;1.95;;;1.27;;
55417;SDS011;41287;47.554;7.844;2023-04-06T02:02:52;2.75;;;1.35;;
55417;SDS011;41287;47.554;7.844;2023-04-06T02:05:19;1.30;;;1.05;;
55417;SDS011;41287;47.554;7.844;2023-04-06T02:07:45;1.33;;;1.10;;
55417;SDS011;41287;47.554;7.844;2023-04-06T02:10:14;1.50;;;1.02;;
55417;SDS011;41287;47.554;7.844;2023-04-06T02:12:40;1.48;;;1.10;;
55417;SDS011;41287;47.554;7.844;2023-04-06T02:15:05;3.08;;;1.10;;
55417;SDS011;41287;47.554;7.844;2023-04-06T02:17:31;1.80;;;1.10;;
55417;SDS011;41287;47.554;7.844;2023-04-06T02:19:57;2.15;;;1.10;;
55417;SDS011;41287;47.554;7.844;2023-04-06T02:22:22;2.15;;;1.27;;
55417;SDS011;41287;47.554;7.844;2023-04-06T02:24:48;1.73;;;1.13;;
55417;SDS011;41287;47.554;7.844;2023-04-06T02:27:13;3.67;;;1.02;;
55417;SDS011;41287;47.554;7.844;2023-04-06T02:29:39;1.25;;;1.02;;
55417;SDS011;41287;47.554;7.844;2023-04-06T02:32:08;1.10;;;0.90;;
55417;SDS011;41287;47.554;7.844;2023-04-06T02:34:36;2.00;;;1.08;;
55417;SDS011;41287;47.554;7.844;2023-04-06T02:37:01;1.27;;;0.90;;
55417;SDS011;41287;47.554;7.844;2023-04-06T02:39:26;2.13;;;1.40;;
55417;SDS011;41287;47.554;7.844;2023-04-06T02:41:52;1.73;;;1.00;;
55417;SDS011;41287;47.554;7.844;2023-04-06T02:44:18;2.72;;;1.10;;
55417;SDS011;41287;47.554;7.844;2023-04-06T02:46:43;1.75;;;0.90;;
55417;SDS011;41287;47.554;7.844;2023-04-06T02:49:08;1.73;;;0.95;;
55417;SDS011;41287;47.554;7.844;2023-04-06T02:51:34;3.15;;;1.10;;
55417;SDS011;41287;47.554;7.844;2023-04-06T02:54:01;2.45;;;1.25;;
55417;SDS011;41287;47.554;7.844;2023-04-06T02:56:27;2.58;;;1.13;;
55417;SDS011;41287;47.554;7.844;2023-04-06T02:58:52;2.40;;;1.10;;
55417;SDS011;41287;47.554;7.844;2023-04-06T03:01:17;1.63;;;0.80;;
55417;SDS011;41287;47.554;7.844;2023-04-06T03:03:43;4.05;;;1.42;;
55417;SDS011;41287;47.554;7.844;2023-04-06T03:06:08;2.05;;;0.93;;
55417;SDS011;41287;47.554;7.844;2023-04-06T03:08:34;4.88;;;1.17;;
55417;SDS011;41287;47.554;7.844;2023-04-06T03:11:00;1.80;;;1.02;;
55417;SDS011;41287;47.554;7.844;2023-04-06T03:13:25;4.50;;;1.23;;
55417;SDS011;41287;47.554;7.844;2023-04-06T03:15:50;1.23;;;0.98;;
55417;SDS011;41287;47.554;7.844;2023-04-06T03:18:17;3.05;;;1.00;;
55417;SDS011;41287;47.554;7.844;2023-04-06T03:20:46;1.38;;;1.02;;
55417;SDS011;41287;47.554;7.844;2023-04-06T03:23:12;2.22;;;1.10;;
55417;SDS011;41287;47.554;7.844;2023-04-06T03:25:37;3.50;;;1.02;;
55417;SDS011;41287;47.554;7.844;2023-04-06T03:28:04;1.58;;;1.10;;
55417;SDS011;41287;47.554;7.844;2023-04-06T03:30:33;1.48;;;1.05;;
55417;SDS011;41287;47.554;7.844;2023-04-06T03:32:59;1.05;;;0.88;;
55417;SDS011;41287;47.554;7.844;2023-04-06T03:35:25;2.45;;;1.15;;
55417;SDS011;41287;47.554;7.844;2023-04-06T03:37:50;2.47;;;1.20;;
55417;SDS011;41287;47.554;7.844;2023-04-06T03:40:15;1.73;;;0.90;;
55417;SDS011;41287;47.554;7.844;2023-04-06T03:42:43;2.20;;;1.10;;
55417;SDS011;41287;47.554;7.844;2023-04-06T03:45:08;1.10;;;1.00;;
55417;SDS011;41287;47.554;7.844;2023-04-06T03:47:34;1.25;;;0.90;;
55417;SDS011;41287;47.554;7.844;2023-04-06T03:50:00;1.52;;;1.10;;
55417;SDS011;41287;47.554;7.844;2023-04-06T03:52:25;3.67;;;1.10;;
55417;SDS011;41287;47.554;7.844;2023-04-06T03:54:54;1.60;;;1.15;;
55417;SDS011;41287;47.554;7.844;2023-04-06T03:57:19;2.67;;;1.00;;
55417;SDS011;41287;47.554;7.844;2023-04-06T03:59:45;1.70;;;1.00;;
55417;SDS011;41287;47.554;7.844;2023-04-06T04:02:10;1.27;;;0.93;;
55417;SDS011;41287;47.554;7.844;2023-04-06T04:04:36;1.73;;;1.00;;
55417;SDS011;41287;47.554;7.844;2023-04-06T04:07:03;1.55;;;1.05;;
55417;SDS011;41287;47.554;7.844;2023-04-06T04:09:29;1.77;;;1.00;;
55417;SDS011;41287;47.554;7.844;2023-04-06T04:11:54;1.67;;;1.00;;
55417;SDS011;41287;47.554;7.844;2023-04-06T04:14:20;1.33;;;1.02;;
55417;SDS011;41287;47.554;7.844;2023-04-06T04:16:46;2.40;;;1.00;;
55417;SDS011;41287;47.554;7.844;2023-04-06T04:19:11;1.77;;;1.02;;
55417;SDS011;41287;47.554;7.844;2023-04-06T04:21:42;1.58;;;1.02;;
55417;SDS011;41287;47.554;7.844;2023-04-06T04:24:09;1.70;;;0.88;;
55417;SDS011;41287;47.554;7.844;2023-04-06T04:26:34;6.63;;;1.05;;
55417;SDS011;41287;47.554;7.844;2023-04-06T04:29:00;2.38;;;1.08;;
55417;SDS011;41287;47.554;7.844;2023-04-06T04:31:25;1.80;;;1.05;;
55417;SDS011;41287;47.554;7.844;2023-04-06T04:33:51;1.92;;;0.80;;
55417;SDS011;41287;47.554;7.844;2023-04-06T04:36:18;8.02;;;1.02;;
55417;SDS011;41287;47.554;7.844;2023-04-06T04:38:44;7.07;;;1.35;;
55417;SDS011;41287;47.554;7.844;2023-04-06T04:41:09;2.10;;;1.20;;
55417;SDS011;41287;47.554;7.844;2023-04-06T04:43:35;1.60;;;1.00;;
55417;SDS011;41287;47.554;7.844;2023-04-06T04:46:00;0.90;;;0.80;;
55417;SDS011;41287;47.554;7.844;2023-04-06T04:48:29;1.48;;;0.90;;
55417;SDS011;41287;47.554;7.844;2023-04-06T04:50:55;1.55;;;0.75;;
55417;SDS011;41287;47.554;7.844;2023-04-06T04:53:20;2.65;;;0.93;;
55417;SDS011;41287;47.554;7.844;2023-04-06T04:55:46;2.45;;;0.93;;
55417;SDS011;41287;47.554;7.844;2023-04-06T04:58:11;4.40;;;0.90;;
55417;SDS011;41287;47.554;7.844;2023-04-06T05:00:41;1.00;;;0.77;;
55417;SDS011;41287;47.554;7.844;2023-04-06T05:03:07;1.23;;;0.80;;
55417;SDS011;41287;47.554;7.844;2023-04-06T05:05:32;0.70;;;0.70;;
55417;SDS011;41287;47.554;7.844;2023-04-06T05:07:58;1.17;;;0.80;;
55417;SDS011;41287;47.554;7.844;2023-04-06T05:10:23;0.93;;;0.80;;
55417;SDS011;41287;47.554;7.844;2023-04-06T05:12:48;1.42;;;0.80;;
55417;SDS011;41287;47.554;7.844;2023-04-06T05:15:14;1.25;;;0.85;;
55417;SDS011;41287;47.554;7.844;2023-04-06T05:17:43;1.48;;;0.82;;
55417;SDS011;41287;47.554;7.844;2023-04-06T05:20:09;1.52;;;0.80;;
55417;SDS011;41287;47.554;7.844;2023-04-06T05:22:34;1.27;;;0.77;;
55417;SDS011;41287;47.554;7.844;2023-04-06T05:25:01;1.50;;;0.80;;
55417;SDS011;41287;47.554;7.844;2023-04-06T05:27:27;1.33;;;0.90;;
55417;SDS011;41287;47.554;7.844;2023-04-06T05:29:56;1.27;;;0.80;;
55417;SDS011;41287;47.554;7.844;2023-04-06T05:32:21;0.90;;;0.52;;
55417;SDS011;41287;47.554;7.844;2023-04-06T05:34:49;1.58;;;0.90;;
55417;SDS011;41287;47.554;7.844;2023-04-06T05:37:15;1.65;;;0.90;;
55417;SDS011;41287;47.554;7.844;2023-04-06T05:39:41;1.88;;;0.95;;
55417;SDS011;41287;47.554;7.844;2023-04-06T05:42:06;4.07;;;1.15;;
55417;SDS011;41287;47.554;7.844;2023-04-06T05:44:31;1.65;;;1.13;;
55417;SDS011;41287;47.554;7.844;2023-04-06T05:46:57;2.47;;;1.10;;
55417;SDS011;41287;47.554;7.844;2023-04-06T05:49:22;1.40;;;1.00;;
55417;SDS011;41287;47.554;7.844;2023-04-06T05:51:48;3.20;;;1.13;;
55417;SDS011;41287;47.554;7.844;2023-04-06T05:54:13;2.47;;;1.33;;
55417;SDS011;41287;47.554;7.844;2023-04-06T05:56:38;3.35;;;1.33;;
55417;SDS011;41287;47.554;7.844;2023-04-06T05:59:04;3.53;;;1.20;;
55417;SDS011;41287;47.554;7.844;2023-04-06T06:01:30;3.25;;;1.00;;
55417;SDS011;41287;47.554;7.844;2023-04-06T06:03:55;3.80;;;1.83;;
55417;SDS011;41287;47.554;7.844;2023-04-06T06:06:21;3.08;;;1.40;;
55417;SDS011;41287;47.554;7.844;2023-04-06T06:08:46;2.47;;;1.17;;
55417;SDS011;41287;47.554;7.844;2023-04-06T06:11:12;1.73;;;1.30;;
55417;SDS011;41287;47.554;7.844;2023-04-06T06:13:37;2.63;;;1.50;;
55417;SDS011;41287;47.554;7.844;2023-04-06T06:16:02;3.08;;;1.15;;
55417;SDS011;41287;47.554;7.844;2023-04-06T06:18:30;2.70;;;1.40;;
55417;SDS011;41287;47.554;7.844;2023-04-06T06:20:55;3.47;;;1.55;;
55417;SDS011;41287;47.554;7.844;2023-04-06T06:23:21;2.15;;;1.58;;
55417;SDS011;41287;47.554;7.844;2023-04-06T06:25:46;2.78;;;1.42;;
55417;SDS011;41287;47.554;7.844;2023-04-06T06:28:11;2.05;;;1.30;;
55417;SDS011;41287;47.554;7.844;2023-04-06T06:30:37;3.42;;;1.35;;
55417;SDS011;41287;47.554;7.844;2023-04-06T06:33:02;1.90;;;1.30;;
55417;SDS011;41287;47.554;7.844;2023-04-06T06:35:28;2.33;;;1.20;;
55417;SDS011;41287;47.554;7.844;2023-04-06T06:37:53;2.85;;;1.60;;
55417;SDS011;41287;47.554;7.844;2023-04-06T06:40:19;3.78;;;1.50;;
55417;SDS011;41287;47.554;7.844;2023-04-06T06:42:46;4.10;;;1.33;;
55417;SDS011;41287;47.554;7.844;2023-04-06T06:45:12;2.97;;;1.50;;
55417;SDS011;41287;47.554;7.844;2023-04-06T06:47:40;2.60;;;1.48;;
55417;SDS011;41287;47.554;7.844;2023-04-06T06:50:06;2.72;;;0.98;;
55417;SDS011;41287;47.554;7.844;2023-04-06T06:52:32;3.67;;;1.60;;
55417;SDS011;41287;47.554;7.844;2023-04-06T06:54:57;2.88;;;1.50;;
55417;SDS011;41287;47.554;7.844;2023-04-06T06:57:22;2.60;;;1.60;;
55417;SDS011;41287;47.554;7.844;2023-04-06T06:59:48;3.92;;;1.40;;
55417;SDS011;41287;47.554;7.844;2023-04-06T07:02:13;3.53;;;1.42;;
55417;SDS011;41287;47.554;7.844;2023-04-06T07:04:39;3.17;;;1.35;;
55417;SDS011;41287;47.554;7.844;2023-04-06T07:07:05;2.97;;;1.30;;
55417;SDS011;41287;47.554;7.844;2023-04-06T07:09:30;3.42;;;1.42;;
55417;SDS011;41287;47.554;7.844;2023-04-06T07:11:56;4.07;;;1.30;;
55417;SDS011;41287;47.554;7.844;2023-04-06T07:14:21;2.60;;;1.35;;
55417;SDS011;41287;47.554;7.844;2023-04-06T07:16:47;4.40;;;1.30;;
55417;SDS011;41287;47.554;7.844;2023-04-06T07:19:13;2.25;;;1.20;;
55417;SDS011;41287;47.554;7.844;2023-04-06T07:21:39;3.72;;;1.20;;
55417;SDS011;41287;47.554;7.844;2023-04-06T07:24:06;5.50;;;1.52;;
55417;SDS011;41287;47.554;7.844;2023-04-06T07:26:32;2.83;;;1.45;;
55417;SDS011;41287;47.554;7.844;2023-04-06T07:28:57;4.53;;;1.38;;
55417;SDS011;41287;47.554;7.844;2023-04-06T07:31:23;4.88;;;1.40;;
55417;SDS011;41287;47.554;7.844;2023-04-06T07:33:48;3.55;;;1.90;;
55417;SDS011;41287;47.554;7.844;2023-04-06T07:36:14;6.75;;;1.83;;
55417;SDS011;41287;47.554;7.844;2023-04-06T07:38:40;2.20;;;1.30;;
55417;SDS011;41287;47.554;7.844;2023-04-06T07:41:07;3.03;;;1.40;;
55417;SDS011;41287;47.554;7.844;2023-04-06T07:43:32;3.20;;;1.25;;
55417;SDS011;41287;47.554;7.844;2023-04-06T07:45:58;2.35;;;1.38;;
55417;SDS011;41287;47.554;7.844;2023-04-06T07:48:25;2.70;;;1.27;;
55417;SDS011;41287;47.554;7.844;2023-04-06T07:50:51;3.65;;;1.45;;
55417;SDS011;41287;47.554;7.844;2023-04-06T07:53:16;2.70;;;1.45;;
55417;SDS011;41287;47.554;7.844;2023-04-06T07:55:41;2.75;;;1.50;;
55417;SDS011;41287;47.554;7.844;2023-04-06T07:58:07;3.22;;;1.38;;
55417;SDS011;41287;47.554;7.844;2023-04-06T08:00:32;4.57;;;1.63;;
55417;SDS011;41287;47.554;7.844;2023-04-06T08:02:58;3.60;;;1.27;;
55417;SDS011;41287;47.554;7.844;2023-04-06T08:05:23;2.95;;;1.48;;
55417;SDS011;41287;47.554;7.844;2023-04-06T08:07:49;3.67;;;1.40;;
55417;SDS011;41287;47.554;7.844;2023-04-06T08:10:14;2.90;;;1.70;;
55417;SDS011;41287;47.554;7.844;2023-04-06T08:12:40;2.78;;;1.40;;
55417;SDS011;41287;47.554;7.844;2023-04-06T08:15:07;2.92;;;1.25;;
55417;SDS011;41287;47.554;7.844;2023-04-06T08:17:33;3.28;;;1.58;;
55417;SDS011;41287;47.554;7.844;2023-04-06T08:19:59;3.05;;;1.67;;
55417;SDS011;41287;47.554;7.844;2023-04-06T08:22:24;2.40;;;1.20;;
55417;SDS011;41287;47.554;7.844;2023-04-06T08:24:50;2.20;;;1.33;;
55417;SDS011;41287;47.554;7.844;2023-04-06T08:27:16;1.92;;;1.27;;
55417;SDS011;41287;47.554;7.844;2023-04-06T08:29:41;1.75;;;1.20;;
55417;SDS011;41287;47.554;7.844;2023-04-06T08:32:06;3.10;;;1.52;;
55417;SDS011;41287;47.554;7.844;2023-04-06T08:34:32;3.72;;;1.80;;
55417;SDS011;41287;47.554;7.844;2023-04-06T08:36:58;3.63;;;1.45;;
55417;SDS011;41287;47.554;7.844;2023-04-06T08:39:23;3.38;;;1.30;;
55417;SDS011;41287;47.554;7.844;2023-04-06T08:41:51;2.60;;;1.45;;
55417;SDS011;41287;47.554;7.844;2023-04-06T08:44:17;2.83;;;1.48;;
55417;SDS011;41287;47.554;7.844;2023-04-06T08:46:43;4.18;;;1.70;;
55417;SDS011;41287;47.554;7.844;2023-04-06T08:49:09;3.05;;;1.50;;
55417;SDS011;41287;47.554;7.844;2023-04-06T08:51:34;2.42;;;1.20;;
55417;SDS011;41287;47.554;7.844;2023-04-06T08:54:02;4.57;;;1.42;;
55417;SDS011;41287;47.554;7.844;2023-04-06T08:56:28;2.95;;;1.20;;
55417;SDS011;41287;47.554;7.844;2023-04-06T08:58:53;3.05;;;1.20;;
55417;SDS011;41287;47.554;7.844;2023-04-06T09:01:23;2.25;;;1.48;;
55417;SDS011;41287;47.554;7.844;2023-04-06T09:03:57;1.70;;;1.30;;
55417;SDS011;41287;47.554;7.844;2023-04-06T09:06:25;2.45;;;1.40;;
55417;SDS011;41287;47.554;7.844;2023-04-06T09:08:55;2.20;;;1.30;;
55417;SDS011;41287;47.554;7.844;2023-04-06T09:11:21;2.83;;;1.55;;
55417;SDS011;41287;47.554;7.844;2023-04-06T09:13:48;1.48;;;1.25;;
55417;SDS011;41287;47.554;7.844;2023-04-06T09:16:15;2.45;;;1.20;;
55417;SDS011;41287;47.554;7.844;2023-04-06T09:18:40;1.95;;;1.40;;
55417;SDS011;41287;47.554;7.844;2023-04-06T09:21:06;2.45;;;1.50;;
55417;SDS011;41287;47.554;7.844;2023-04-06T09:23:33;1.88;;;1.20;;
55417;SDS011;41287;47.554;7.844;2023-04-06T09:26:06;2.47;;;1.50;;
55417;SDS011;41287;47.554;7.844;2023-04-06T09:28:53;1.48;;;1.10;;
55417;SDS011;41287;47.554;7.844;2023-04-06T09:31:24;3.58;;;1.60;;
55417;SDS011;41287;47.554;7.844;2023-04-06T09:36:19;1.58;;;1.23;;
55417;SDS011;41287;47.554;7.844;2023-04-06T09:38:51;2.08;;;1.15;;
55417;SDS011;41287;47.554;7.844;2023-04-06T09:41:53;2.40;;;1.30;;
55417;SDS011;41287;47.554;7.844;2023-04-06T09:44:13;2.42;;;1.40;;
55417;SDS011;41287;47.554;7.844;2023-04-06T09:49:08;3.58;;;1.50;;
55417;SDS011;41287;47.554;7.844;2023-04-06T09:54:11;2.15;;;1.27;;
55417;SDS011;41287;47.554;7.844;2023-04-06T09:56:46;2.20;;;1.40;;
55417;SDS011;41287;47.554;7.844;2023-04-06T09:59:20;2.22;;;1.38;;
55417;SDS011;41287;47.554;7.844;2023-04-06T10:01:52;2.05;;;1.40;;
55417;SDS011;41287;47.554;7.844;2023-04-06T10:04:42;2.60;;;1.48;;
55417;SDS011;41287;47.554;7.844;2023-04-06T10:07:13;1.52;;;1.15;;
55417;SDS011;41287;47.554;7.844;2023-04-06T10:09:40;3.13;;;1.45;;
55417;SDS011;41287;47.554;7.844;2023-04-06T10:12:08;2.70;;;1.40;;
55417;SDS011;41287;47.554;7.844;2023-04-06T10:14:34;1.77;;;1.20;;
55417;SDS011;41287;47.554;7.844;2023-04-06T10:17:02;3.25;;;1.52;;
55417;SDS011;41287;47.554;7.844;2023-04-06T10:19:34;3.83;;;1.55;;
55417;SDS011;41287;47.554;7.844;2023-04-06T10:22:03;3.85;;;1.30;;
55417;SDS011;41287;47.554;7.844;2023-04-06T10:24:31;3.08;;;1.27;;
55417;SDS011;41287;47.554;7.844;2023-04-06T10:26:57;2.00;;;1.40;;
55417;SDS011;41287;47.554;7.844;2023-04-06T10:29:40;3.45;;;1.48;;
55417;SDS011;41287;47.554;7.844;2023-04-06T10:32:10;3.92;;;1.90;;
55417;SDS011;41287;47.554;7.844;2023-04-06T10:34:35;3.50;;;1.60;;
55417;SDS011;41287;47.554;7.844;2023-04-06T10:37:11;5.63;;;2.05;;
55417;SDS011;41287;47.554;7.844;2023-04-06T10:39:45;3.75;;;2.13;;
55417;SDS011;41287;47.554;7.844;2023-04-06T10:42:12;4.07;;;2.03;;
55417;SDS011;41287;47.554;7.844;2023-04-06T10:44:41;3.63;;;2.20;;
55417;SDS011;41287;47.554;7.844;2023-04-06T10:47:14;4.85;;;2.50;;
55417;SDS011;41287;47.554;7.844;2023-04-06T10:49:42;4.43;;;2.55;;
55417;SDS011;41287;47.554;7.844;2023-04-06T10:52:07;6.18;;;2.78;;
55417;SDS011;41287;47.554;7.844;2023-04-06T10:54:33;8.38;;;2.90;;
55417;SDS011;41287;47.554;7.844;2023-04-06T10:56:58;4.35;;;2.83;;
55417;SDS011;41287;47.554;7.844;2023-04-06T10:59:23;6.90;;;3.10;;
55417;SDS011;41287;47.554;7.844;2023-04-06T11:01:50;5.50;;;2.88;;
55417;SDS011;41287;47.554;7.844;2023-04-06T11:04:19;5.57;;;3.40;;
55417;SDS011;41287;47.554;7.844;2023-04-06T11:06:46;8.40;;;3.35;;
55417;SDS011;41287;47.554;7.844;2023-04-06T11:09:24;7.47;;;3.85;;
55417;SDS011;41287;47.554;7.844;2023-04-06T11:11:50;6.13;;;3.25;;
55417;SDS011;41287;47.554;7.844;2023-04-06T11:14:16;6.55;;;3.70;;
55417;SDS011;41287;47.554;7.844;2023-04-06T11:16:45;8.07;;;3.80;;
55417;SDS011;41287;47.554;7.844;2023-04-06T11:19:12;6.57;;;3.72;;
55417;SDS011;41287;47.554;7.844;2023-04-06T11:21:39;7.90;;;4.30;;
55417;SDS011;41287;47.554;7.844;2023-04-06T11:24:12;8.35;;;3.92;;
55417;SDS011;41287;47.554;7.844;2023-04-06T11:29:14;7.72;;;4.25;;
55417;SDS011;41287;47.554;7.844;2023-04-06T11:31:51;8.93;;;4.55;;
55417;SDS011;41287;47.554;7.844;2023-04-06T11:34:19;7.80;;;4.28;;
55417;SDS011;41287;47.554;7.844;2023-04-06T11:36:46;10.10;;;4.28;;
55417;SDS011;41287;47.554;7.844;2023-04-06T11:39:13;7.00;;;3.88;;
55417;SDS011;41287;47.554;7.844;2023-04-06T11:41:48;8.25;;;4.20;;
55417;SDS011;41287;47.554;7.844;2023-04-06T11:44:14;7.35;;;4.35;;
55417;SDS011;41287;47.554;7.844;2023-04-06T11:46:39;10.10;;;4.57;;
55417;SDS011;41287;47.554;7.844;2023-04-06T11:49:05;9.40;;;4.55;;
55417;SDS011;41287;47.554;7.844;2023-04-06T11:51:30;9.15;;;4.30;;
55417;SDS011;41287;47.554;7.844;2023-04-06T11:54:00;8.27;;;4.50;;
55417;SDS011;41287;47.554;7.844;2023-04-06T11:56:29;7.78;;;4.18;;
55417;SDS011;41287;47.554;7.844;2023-04-06T11:58:55;10.60;;;5.30;;
55417;SDS011;41287;47.554;7.844;2023-04-06T12:01:22;9.20;;;4.10;;
55417;SDS011;41287;47.554;7.844;2023-04-06T12:03:51;7.97;;;4.32;;
55417;SDS011;41287;47.554;7.844;2023-04-06T12:06:17;8.70;;;4.60;;
55417;SDS011;41287;47.554;7.844;2023-04-06T12:08:42;11.60;;;5.25;;
55417;SDS011;41287;47.554;7.844;2023-04-06T12:11:08;10.88;;;4.95;;
55417;SDS011;41287;47.554;7.844;2023-04-06T12:13:33;8.90;;;4.65;;
55417;SDS011;41287;47.554;7.844;2023-04-06T12:15:59;8.73;;;4.32;;
55417;SDS011;41287;47.554;7.844;2023-04-06T12:18:24;8.40;;;4.38;;
55417;SDS011;41287;47.554;7.844;2023-04-06T12:20:51;8.63;;;4.28;;
55417;SDS011;41287;47.554;7.844;2023-04-06T12:23:16;9.48;;;4.43;;
55417;SDS011;41287;47.554;7.844;2023-04-06T12:25:44;8.00;;;4.60;;
55417;SDS011;41287;47.554;7.844;2023-04-06T12:28:10;9.45;;;4.55;;
55417;SDS011;41287;47.554;7.844;2023-04-06T12:30:36;8.93;;;4.43;;
55417;SDS011;41287;47.554;7.844;2023-04-06T12:33:01;7.63;;;4.15;;
55417;SDS011;41287;47.554;7.844;2023-04-06T12:35:27;7.82;;;4.43;;
55417;SDS011;41287;47.554;7.844;2023-04-06T12:37:52;10.70;;;4.70;;
55417;SDS011;41287;47.554;7.844;2023-04-06T12:40:20;7.60;;;4.13;;
55417;SDS011;41287;47.554;7.844;2023-04-06T12:42:45;7.70;;;4.35;;
55417;SDS011;41287;47.554;7.844;2023-04-06T12:45:11;8.68;;;5.20;;
55417;SDS011;41287;47.554;7.844;2023-04-06T12:47:37;9.60;;;4.78;;
55417;SDS011;41287;47.554;7.844;2023-04-06T12:50:03;8.88;;;4.68;;
55417;SDS011;41287;47.554;7.844;2023-04-06T12:52:31;9.35;;;4.53;;
55417;SDS011;41287;47.554;7.844;2023-04-06T12:54:57;8.23;;;4.65;;
55417;SDS011;41287;47.554;7.844;2023-04-06T12:57:24;7.30;;;4.00;;
55417;SDS011;41287;47.554;7.844;2023-04-06T12:59:50;7.63;;;4.38;;
55417;SDS011;41287;47.554;7.844;2023-04-06T13:02:16;8.43;;;5.10;;
55417;SDS011;41287;47.554;7.844;2023-04-06T13:04:42;8.32;;;4.60;;
55417;SDS011;41287;47.554;7.844;2023-04-06T13:07:07;8.48;;;4.60;;
55417;SDS011;41287;47.554;7.844;2023-04-06T13:09:33;9.88;;;5.15;;
55417;SDS011;41287;47.554;7.844;2023-04-06T13:11:58;8.55;;;4.38;;
55417;SDS011;41287;47.554;7.844;2023-04-06T13:14:24;10.02;;;5.05;;
55417;SDS011;41287;47.554;7.844;2023-04-06T13:16:50;10.15;;;5.10;;
55417;SDS011;41287;47.554;7.844;2023-04-06T13:19:16;9.13;;;4.40;;
55417;SDS011;41287;47.554;7.844;2023-04-06T13:21:41;10.50;;;4.88;;
55417;SDS011;41287;47.554;7.844;2023-04-06T13:24:06;8.43;;;4.72;;
55417;SDS011;41287;47.554;7.844;2023-04-06T13:26:34;8.60;;;4.47;;
55417;SDS011;41287;47.554;7.844;2023-04-06T13:29:00;9.13;;;4.75;;
55417;SDS011;41287;47.554;7.844;2023-04-06T13:31:27;8.02;;;4.60;;
55417;SDS011;41287;47.554;7.844;2023-04-06T13:33:53;7.15;;;4.35;;
55417;SDS011;41287;47.554;7.844;2023-04-06T13:36:18;7.25;;;4.53;;
55417;SDS011;41287;47.554;7.844;2023-04-06T13:38:44;9.23;;;4.28;;
55417;SDS011;41287;47.554;7.844;2023-04-06T13:41:10;7.00;;;3.83;;
55417;SDS011;41287;47.554;7.844;2023-04-06T13:43:42;8.70;;;4.50;;
55417;SDS011;41287;47.554;7.844;2023-04-06T13:46:07;9.10;;;3.95;;
55417;SDS011;41287;47.554;7.844;2023-04-06T13:48:35;7.40;;;4.38;;
55417;SDS011;41287;47.554;7.844;2023-04-06T13:51:10;9.55;;;4.75;;
55417;SDS011;41287;47.554;7.844;2023-04-06T13:53:36;8.43;;;4.28;;
55417;SDS011;41287;47.554;7.844;2023-04-06T13:56:02;8.77;;;4.45;;
55417;SDS011;41287;47.554;7.844;2023-04-06T13:58:27;8.85;;;4.50;;
55417;SDS011;41287;47.554;7.844;2023-04-06T14:00:53;8.10;;;4.75;;
55417;SDS011;41287;47.554;7.844;2023-04-06T14:03:18;7.47;;;4.25;;
55417;SDS011;41287;47.554;7.844;2023-04-06T14:05:44;8.85;;;4.70;;
55417;SDS011;41287;47.554;7.844;2023-04-06T14:08:10;7.38;;;4.13;;
55417;SDS011;41287;47.554;7.844;2023-04-06T14:10:38;7.35;;;4.43;;
55417;SDS011;41287;47.554;7.844;2023-04-06T14:13:06;8.57;;;4.53;;
55417;SDS011;41287;47.554;7.844;2023-04-06T14:15:32;8.50;;;4.75;;
55417;SDS011;41287;47.554;7.844;2023-04-06T14:17:58;8.45;;;4.45;;
55417;SDS011;41287;47.554;7.844;2023-04-06T14:20:24;6.78;;;4.13;;
55417;SDS011;41287;47.554;7.844;2023-04-06T14:22:49;9.25;;;4.68;;
55417;SDS011;41287;47.554;7.844;2023-04-06T14:25:17;8.50;;;4.38;;
55417;SDS011;41287;47.554;7.844;2023-04-06T14:27:43;10.15;;;4.60;;
55417;SDS011;41287;47.554;7.844;2023-04-06T14:30:09;8.23;;;4.47;;
55417;SDS011;41287;47.554;7.844;2023-04-06T14:32:37;8.43;;;4.55;;
55417;SDS011;41287;47.554;7.844;2023-04-06T14:35:02;7.65;;;4.50;;
55417;SDS011;41287;47.554;7.844;2023-04-06T14:37:28;8.30;;;4.32;;
55417;SDS011;41287;47.554;7.844;2023-04-06T14:39:54;7.97;;;4.43;;
55417;SDS011;41287;47.554;7.844;2023-04-06T14:42:20;7.30;;;4.60;;
55417;SDS011;41287;47.554;7.844;2023-04-06T14:44:45;8.02;;;4.30;;
55417;SDS011;41287;47.554;7.844;2023-04-06T14:47:11;8.35;;;4.32;;
55417;SDS011;41287;47.554;7.844;2023-04-06T14:49:40;9.60;;;4.20;;
55417;SDS011;41287;47.554;7.844;2023-04-06T14:52:05;5.75;;;3.70;;
55417;SDS011;41287;47.554;7.844;2023-04-06T14:54:31;7.55;;;4.03;;